Time;durP1;ratioP1;P1;durP2;ratioP2;P2;SDS_P1;SDS_P2;PMS_P1;PMS_P2;Temp;Humidity;BMP_temperature;BMP_pressure;BME280_temperature;BME280_humidity;BME280_pressure;Samples;Min_cycle;Max_cycle;Signal;HPM_P1;HPM_P2
2023/08/30 00:02:20;;;;;;;;;8.00;6.00;;;;;17.60;58.64;100467.84;5068357;27;45564;-72
2023/08/30 00:04:45;;;;;;;;;7.50;7.50;;;;;17.63;58.85;100472.97;5069955;27;45441;-72
2023/08/30 00:07:10;;;;;;;;;8.25;7.50;;;;;17.61;58.81;100469.56;5055572;28;45316;-71
2023/08/30 00:09:36;;;;;;;;;7.50;6.75;;;;;17.61;59.15;100470.41;5079556;27;45627;-70
2023/08/30 00:12:02;;;;;;;;;7.00;6.00;;;;;17.61;58.67;100470.41;5066871;28;45363;-71
2023/08/30 00:14:28;;;;;;;;;8.50;7.00;;;;;17.62;58.79;100468.63;5060652;28;47496;-71
2023/08/30 00:16:54;;;;;;;;;7.00;7.00;;;;;17.59;59.21;100469.66;5072815;27;45408;-71
2023/08/30 00:19:19;;;;;;;;;7.25;5.50;;;;;17.59;58.78;100468.81;5067366;27;45334;-72
2023/08/30 00:21:44;;;;;;;;;9.00;6.25;;;;;17.55;58.65;100454.91;5071258;27;45440;-71
2023/08/30 00:24:10;;;;;;;;;10.00;8.00;;;;;17.61;58.68;100462.47;5071834;27;57550;-71
2023/08/30 00:26:36;;;;;;;;;8.25;7.25;;;;;17.60;58.96;100462.56;5068176;28;45376;-71
2023/08/30 00:29:01;;;;;;;;;4.50;4.50;;;;;17.59;59.20;100453.78;5067033;27;45296;-71
2023/08/30 00:31:26;;;;;;;;;9.25;6.50;;;;;17.63;58.95;100455.28;5076067;27;54850;-72
2023/08/30 00:33:52;;;;;;;;;6.00;4.00;;;;;17.64;59.00;100454.34;5069856;27;51498;-72
2023/08/30 00:36:18;;;;;;;;;10.50;6.00;;;;;17.62;59.15;100439.53;5070952;27;47602;-72
2023/08/30 00:38:44;;;;;;;;;8.75;7.00;;;;;17.64;59.10;100446.41;5075455;28;45496;-72
2023/08/30 00:41:09;;;;;;;;;5.75;4.75;;;;;17.65;59.05;100439.31;5079807;27;45686;-73
2023/08/30 00:43:34;;;;;;;;;7.75;6.00;;;;;17.66;58.94;100433.09;5063584;28;59552;-72
2023/08/30 00:46:00;;;;;;;;;7.50;5.75;;;;;17.68;59.27;100433.84;5069832;27;56671;-71
2023/08/30 00:48:25;;;;;;;;;6.25;5.00;;;;;17.71;59.21;100438.13;5076667;27;45435;-72
2023/08/30 00:50:51;;;;;;;;;5.00;5.00;;;;;17.73;59.10;100430.91;5081103;27;45455;-71
2023/08/30 00:53:16;;;;;;;;;5.50;5.00;;;;;17.77;58.74;100427.97;5070809;27;46086;-72
2023/08/30 00:55:43;;;;;;;;;5.75;4.25;;;;;17.80;58.93;100429.59;5075463;27;45406;-74
2023/08/30 00:58:09;;;;;;;;;8.00;6.25;;;;;17.84;58.91;100428.44;5081055;27;45313;-72
2023/08/30 01:00:35;;;;;;;;;7.25;6.00;;;;;17.85;58.44;100422.22;5050094;28;45323;-72
2023/08/30 01:03:01;;;;;;;;;7.00;5.00;;;;;17.88;58.50;100410.59;5074149;27;45712;-73
2023/08/30 01:05:27;;;;;;;;;6.00;5.00;;;;;17.95;58.34;100420.72;5058807;27;45264;-71
2023/08/30 01:07:55;;;;;;;;;5.00;5.00;;;;;17.97;58.22;100417.97;5071228;28;45338;-72
2023/08/30 01:10:33;;;;;;;;;4.25;3.00;;;;;18.02;58.16;100415.88;5075651;27;45442;-72
2023/08/30 01:13:07;;;;;;;;;5.00;4.00;;;;;18.05;57.92;100410.41;5074930;27;45533;-73
2023/08/30 01:15:32;;;;;;;;;7.00;4.00;;;;;18.01;58.27;100398.31;5073846;27;45236;-72
2023/08/30 01:17:59;;;;;;;;;2.50;1.75;;;;;18.06;58.16;100400.66;5067899;27;45651;-72
2023/08/30 01:20:25;;;;;;;;;4.00;3.00;;;;;18.08;58.03;100398.75;5076498;28;71037;-72
2023/08/30 01:22:51;;;;;;;;;4.50;2.50;;;;;18.11;57.79;100402.06;5070855;27;45657;-71
2023/08/30 01:25:55;;;;;;;;;4.00;3.00;;;;;18.11;57.71;100396.75;5077831;27;45473;-72
2023/08/30 01:28:22;;;;;;;;;4.50;3.00;;;;;18.12;57.83;100398.47;5087100;27;45317;-72
2023/08/30 01:30:48;;;;;;;;;3.75;2.50;;;;;18.13;57.77;100394.00;5085267;27;45491;-72
2023/08/30 01:33:15;;;;;;;;;3.00;3.00;;;;;18.15;57.53;100398.28;5074923;27;45372;-72
2023/08/30 01:35:41;;;;;;;;;4.50;3.75;;;;;18.13;57.65;100392.25;5073515;27;45759;-72
2023/08/30 01:38:07;;;;;;;;;5.50;3.25;;;;;18.17;57.30;100392.88;5059151;28;45322;-72
2023/08/30 01:40:38;;;;;;;;;3.75;3.75;;;;;18.15;57.27;100389.47;5071232;28;45221;-72
2023/08/30 01:43:05;;;;;;;;;3.50;3.50;;;;;18.12;57.62;100379.94;5077889;27;46762;-71
2023/08/30 01:45:32;;;;;;;;;2.50;2.50;;;;;18.14;57.17;100385.97;5069645;28;45474;-71
2023/08/30 01:47:58;;;;;;;;;3.00;3.00;;;;;18.18;57.34;100383.97;5074750;27;45407;-71
2023/08/30 01:50:24;;;;;;;;;3.00;3.00;;;;;18.19;57.50;100385.69;5079607;27;45260;-72
2023/08/30 01:52:50;;;;;;;;;6.25;5.00;;;;;18.18;57.04;100376.91;5073076;27;51736;-73
2023/08/30 01:55:18;;;;;;;;;5.00;3.50;;;;;18.16;57.37;100375.28;5073658;27;61484;-71
2023/08/30 01:57:43;;;;;;;;;4.50;2.50;;;;;18.16;57.33;100368.19;5067009;28;45363;-71
2023/08/30 02:00:09;;;;;;;;;4.50;2.75;;;;;18.16;56.95;100373.47;5070758;27;45485;-72
2023/08/30 02:02:34;;;;;;;;;3.50;3.50;;;;;18.18;57.21;100374.25;5075665;27;45425;-72
2023/08/30 02:05:00;;;;;;;;;3.00;2.00;;;;;18.16;57.16;100372.63;5078629;27;45334;-72
2023/08/30 02:07:50;;;;;;;;;3.25;2.75;;;;;18.16;56.99;100370.00;5072353;28;45320;-71
2023/08/30 02:10:28;;;;;;;;;3.75;2.75;;;;;18.19;57.15;100372.44;5061701;27;45300;-70
2023/08/30 02:12:55;;;;;;;;;2.75;2.75;;;;;18.21;57.01;100362.59;5074889;27;46811;-71
2023/08/30 02:15:21;;;;;;;;;3.25;2.00;;;;;18.20;57.27;100361.75;5074217;27;45969;-71
2023/08/30 02:17:48;;;;;;;;;2.75;1.75;;;;;18.22;56.88;100366.97;5071818;27;45539;-72
2023/08/30 02:20:14;;;;;;;;;2.00;2.00;;;;;18.20;56.70;100361.75;5078665;27;45530;-71
2023/08/30 02:22:39;;;;;;;;;4.00;3.00;;;;;18.21;56.62;100365.25;5073928;27;46876;-72
2023/08/30 02:25:06;;;;;;;;;3.50;2.25;;;;;18.21;56.89;100371.38;5073818;27;59789;-72
2023/08/30 02:27:32;;;;;;;;;6.25;2.75;;;;;18.22;56.97;100372.25;5073168;28;45598;-73
2023/08/30 02:29:57;;;;;;;;;4.00;3.00;;;;;18.20;57.01;100356.47;5077167;27;45585;-73
2023/08/30 02:32:23;;;;;;;;;3.25;2.25;;;;;18.25;56.48;100364.09;5052136;28;46887;-72
2023/08/30 02:34:50;;;;;;;;;2.50;2.50;;;;;18.23;56.85;100363.34;5092405;27;45417;-71
2023/08/30 02:37:15;;;;;;;;;2.50;2.50;;;;;18.25;56.95;100357.94;5069980;28;45752;-72
2023/08/30 02:39:41;;;;;;;;;4.00;2.50;;;;;18.25;56.77;100352.66;5072041;28;68236;-73
2023/08/30 02:42:06;;;;;;;;;4.50;2.00;;;;;18.27;56.67;100351.59;5073378;27;66274;-72
2023/08/30 02:44:31;;;;;;;;;3.00;3.00;;;;;18.29;56.81;100356.78;5073567;27;69544;-72
2023/08/30 02:46:57;;;;;;;;;4.00;2.00;;;;;18.31;56.83;100352.22;5065997;28;50041;-71
2023/08/30 02:49:22;;;;;;;;;3.75;3.00;;;;;18.29;56.81;100344.41;5067854;28;71338;-71
2023/08/30 02:51:47;;;;;;;;;3.00;1.00;;;;;18.29;56.57;100355.00;5078842;27;73276;-70
2023/08/30 02:54:13;;;;;;;;;4.50;2.75;;;;;18.25;56.60;100350.84;5073706;27;68821;-71
2023/08/30 02:56:39;;;;;;;;;3.25;3.25;;;;;18.29;56.74;100355.00;5072835;27;45279;-71
2023/08/30 02:59:05;;;;;;;;;2.00;2.00;;;;;18.27;56.77;100350.75;5076619;28;45311;-70
2023/08/30 03:01:30;;;;;;;;;3.25;2.00;;;;;18.27;56.63;100358.69;5072998;27;70252;-71
2023/08/30 03:03:55;;;;;;;;;2.00;2.00;;;;;18.25;56.36;100352.66;5073787;28;68317;-72
2023/08/30 03:06:20;;;;;;;;;2.75;2.75;;;;;18.22;56.18;100351.06;5079194;27;58602;-71
2023/08/30 03:08:46;;;;;;;;;4.25;3.00;;;;;18.23;56.54;100358.03;5073272;27;45319;-71
2023/08/30 03:11:12;;;;;;;;;2.00;1.75;;;;;18.23;56.44;100352.75;5074030;27;45184;-71
2023/08/30 03:13:38;;;;;;;;;7.00;2.00;;;;;18.21;56.50;100352.00;5066912;28;45932;-71
2023/08/30 03:16:14;;;;;;;;;3.00;3.00;;;;;18.25;56.56;100357.94;5079695;28;45891;-71
2023/08/30 03:18:40;;;;;;;;;4.50;2.75;;;;;18.23;56.80;100354.56;5069718;28;45589;-73
2023/08/30 03:21:06;;;;;;;;;2.75;2.75;;;;;18.25;56.96;100356.13;5070880;27;45387;-71
2023/08/30 03:23:32;;;;;;;;;2.00;2.00;;;;;18.25;57.00;100355.31;5077425;28;45433;-71
2023/08/30 03:26:06;;;;;;;;;2.00;2.00;;;;;18.23;56.89;100351.91;5075566;28;45230;-71
2023/08/30 03:28:32;;;;;;;;;3.00;3.00;;;;;18.23;57.02;100355.41;5067860;28;45355;-71
2023/08/30 03:30:57;;;;;;;;;3.50;2.00;;;;;18.18;57.22;100347.78;5079181;27;63420;-71
2023/08/30 03:33:22;;;;;;;;;3.50;2.25;;;;;18.18;57.39;100345.13;5073272;27;69067;-71
2023/08/30 03:35:48;;;;;;;;;2.00;2.00;;;;;18.14;57.48;100342.75;5078868;28;61353;-71
2023/08/30 03:38:13;;;;;;;;;4.75;2.50;;;;;18.15;57.38;100342.66;5070037;27;70881;-71
2023/08/30 03:40:39;;;;;;;;;6.25;3.00;;;;;18.13;57.77;100335.75;5075077;27;57488;-71
2023/08/30 03:43:05;;;;;;;;;5.50;2.00;;;;;18.11;58.42;100335.00;5079699;27;45628;-71
2023/08/30 03:45:34;;;;;;;;;3.00;3.00;;;;;18.09;58.04;100340.41;5073129;28;61756;-72
2023/08/30 03:48:00;;;;;;;;;4.75;4.00;;;;;18.08;58.26;100338.72;5070913;28;45391;-72
2023/08/30 03:50:25;;;;;;;;;5.50;2.75;;;;;18.07;58.68;100334.34;5077879;28;45530;-70
2023/08/30 03:52:50;;;;;;;;;3.75;2.50;;;;;18.07;58.51;100338.81;5067424;28;45744;-71
2023/08/30 03:55:16;;;;;;;;;4.75;3.00;;;;;18.06;58.71;100331.81;5073888;27;68401;-72
2023/08/30 03:57:41;;;;;;;;;3.25;3.00;;;;;18.05;58.66;100340.72;5071016;28;45473;-72
2023/08/30 04:00:07;;;;;;;;;2.75;1.50;;;;;18.07;58.95;100336.16;5077612;27;69198;-71
2023/08/30 04:02:32;;;;;;;;;4.00;3.00;;;;;18.06;58.87;100332.69;5076851;27;45305;-72
2023/08/30 04:04:58;;;;;;;;;5.00;3.00;;;;;18.06;59.08;100330.03;5073073;27;45333;-72
2023/08/30 04:07:23;;;;;;;;;3.50;2.75;;;;;18.06;59.45;100327.38;5056820;28;64577;-73
2023/08/30 04:09:50;;;;;;;;;2.00;2.00;;;;;18.07;59.57;100329.06;5081739;27;71085;-73
2023/08/30 04:12:15;;;;;;;;;4.50;3.00;;;;;18.02;60.18;100324.06;5077749;28;45215;-71
2023/08/30 04:14:40;;;;;;;;;3.75;3.50;;;;;17.99;60.47;100321.63;5082111;27;69172;-72
2023/08/30 04:17:06;;;;;;;;;3.00;3.00;;;;;18.01;59.79;100327.66;5058448;28;57277;-71
2023/08/30 04:19:31;;;;;;;;;3.00;3.00;;;;;17.96;60.49;100329.75;5068724;27;70720;-72
2023/08/30 04:21:56;;;;;;;;;3.75;2.00;;;;;17.97;60.15;100333.25;5074390;27;73468;-72
2023/08/30 04:24:22;;;;;;;;;6.25;2.75;;;;;17.95;60.67;100329.84;5076181;27;58044;-73
2023/08/30 04:26:51;;;;;;;;;4.00;4.00;;;;;17.92;60.07;100325.63;5063708;28;45545;-73
2023/08/30 04:29:16;;;;;;;;;4.75;2.50;;;;;17.95;59.94;100320.09;5072937;27;45323;-72
2023/08/30 04:31:43;;;;;;;;;3.00;3.00;;;;;17.94;59.90;100314.94;5085610;27;45490;-71
2023/08/30 04:34:08;;;;;;;;;5.50;4.00;;;;;17.94;60.14;100309.63;5073062;28;45442;-71
2023/08/30 04:36:34;;;;;;;;;3.25;2.50;;;;;17.96;60.14;100313.03;5075952;27;70037;-71
2023/08/30 04:38:59;;;;;;;;;3.75;2.75;;;;;17.98;60.24;100306.66;5063547;28;62032;-72
2023/08/30 04:41:24;;;;;;;;;5.75;3.75;;;;;18.00;60.32;100309.22;5094127;27;45404;-72
2023/08/30 04:43:50;;;;;;;;;2.75;2.75;;;;;18.00;60.48;100298.63;5080122;27;65632;-72
2023/08/30 04:46:15;;;;;;;;;4.25;2.25;;;;;18.00;60.53;100307.41;5074834;28;45134;-73
2023/08/30 04:48:40;;;;;;;;;5.50;4.75;;;;;18.01;61.34;100311.78;5079161;27;66711;-72
2023/08/30 04:51:06;;;;;;;;;6.75;3.25;;;;;17.99;61.44;100302.25;5071885;28;45413;-72
2023/08/30 04:53:31;;;;;;;;;3.25;3.00;;;;;17.96;61.76;100295.34;5066470;28;45297;-72
2023/08/30 04:55:57;;;;;;;;;3.00;2.00;;;;;17.95;62.02;100304.22;5068757;28;45427;-72
2023/08/30 04:58:22;;;;;;;;;3.00;2.75;;;;;17.94;61.61;100301.69;5069817;27;53898;-72
2023/08/30 05:00:47;;;;;;;;;5.50;2.50;;;;;17.94;61.46;100296.41;5075331;27;70987;-73
2023/08/30 05:03:13;;;;;;;;;6.25;4.00;;;;;17.96;62.01;100299.78;5056691;28;60486;-72
2023/08/30 05:05:38;;;;;;;;;4.75;3.00;;;;;17.97;61.53;100293.53;5070044;27;58086;-72
2023/08/30 05:08:04;;;;;;;;;5.75;4.00;;;;;17.97;61.73;100293.53;5087088;27;59173;-72
2023/08/30 05:10:29;;;;;;;;;4.00;4.00;;;;;18.00;62.20;100290.69;5068500;27;45505;-72
2023/08/30 05:12:54;;;;;;;;;3.75;3.75;;;;;17.99;62.20;100296.94;5075349;27;45517;-72
2023/08/30 05:15:20;;;;;;;;;3.00;3.00;;;;;17.96;61.70;100282.09;5075677;28;45261;-72
2023/08/30 05:17:45;;;;;;;;;4.75;3.75;;;;;17.95;62.19;100283.03;5095831;27;47146;-72
2023/08/30 05:20:11;;;;;;;;;5.00;4.75;;;;;17.97;61.74;100283.81;5072943;28;45348;-72
2023/08/30 05:22:36;;;;;;;;;3.00;3.00;;;;;17.97;62.52;100286.47;5095091;27;45424;-72
2023/08/30 05:25:02;;;;;;;;;3.50;3.25;;;;;17.95;62.14;100277.75;5067854;27;72756;-74
2023/08/30 05:27:28;;;;;;;;;3.00;3.00;;;;;17.97;61.86;100285.59;5069677;28;45438;-77
2023/08/30 05:29:55;;;;;;;;;4.00;3.50;;;;;17.98;61.62;100285.50;5066556;28;45719;-80
2023/08/30 05:32:20;;;;;;;;;5.25;3.50;;;;;18.01;62.03;100295.06;5080324;27;45580;-70
2023/08/30 05:34:46;;;;;;;;;3.75;3.75;;;;;18.02;61.74;100296.72;5074564;28;49526;-74
2023/08/30 05:37:11;;;;;;;;;4.75;3.00;;;;;18.01;62.12;100297.69;5049635;28;54439;-76
2023/08/30 05:39:36;;;;;;;;;4.75;3.00;;;;;18.00;62.00;100288.88;5080026;28;45225;-77
2023/08/30 05:42:02;;;;;;;;;3.50;3.00;;;;;18.02;62.10;100292.31;5073798;28;52388;-73
2023/08/30 05:44:28;;;;;;;;;4.25;3.75;;;;;18.01;62.19;100293.25;5066574;28;45430;-74
2023/08/30 05:46:53;;;;;;;;;7.00;4.25;;;;;17.99;62.41;100295.16;5078690;28;48070;-72
2023/08/30 05:49:18;;;;;;;;;6.25;4.25;;;;;18.03;62.31;100298.44;5067755;28;45268;-73
2023/08/30 05:51:44;;;;;;;;;3.00;2.75;;;;;18.03;62.55;100296.63;5054345;28;45314;-74
2023/08/30 05:54:09;;;;;;;;;7.50;3.75;;;;;18.03;62.88;100296.63;5072286;28;45421;-74
2023/08/30 05:56:34;;;;;;;;;6.25;3.50;;;;;18.06;62.15;100292.09;5068487;28;45295;-74
2023/08/30 05:59:00;;;;;;;;;5.50;4.00;;;;;18.08;62.13;100298.13;5061844;28;45293;-76
2023/08/30 06:01:25;;;;;;;;;3.50;3.50;;;;;18.07;62.21;100301.75;5070126;28;55240;-76
2023/08/30 06:03:51;;;;;;;;;5.50;4.00;;;;;18.11;62.34;100309.38;5069492;28;57065;-77
2023/08/30 06:06:16;;;;;;;;;3.25;3.25;;;;;18.13;62.43;100307.50;5077879;28;47272;-75
2023/08/30 06:08:42;;;;;;;;;3.00;2.25;;;;;18.14;62.24;100303.88;5075947;28;45329;-76
2023/08/30 06:11:08;;;;;;;;;5.75;3.25;;;;;18.18;62.54;100317.75;5066200;28;45350;-76
2023/08/30 06:13:33;;;;;;;;;4.25;4.00;;;;;18.16;62.59;100309.06;5078034;28;45558;-74
2023/08/30 06:15:58;;;;;;;;;3.50;2.00;;;;;18.17;62.31;100310.78;5060175;28;47462;-74
2023/08/30 06:18:24;;;;;;;;;4.00;2.00;;;;;18.20;62.79;100311.44;5045693;28;59125;-74
2023/08/30 06:20:49;;;;;;;;;4.50;3.25;;;;;18.23;62.47;100317.47;5047403;28;50607;-73
2023/08/30 06:23:18;;;;;;;;;4.25;3.00;;;;;18.27;62.33;100306.56;5068204;28;45530;-74
2023/08/30 06:25:43;;;;;;;;;4.00;2.75;;;;;18.31;62.81;100307.19;5064594;28;46428;-71
2023/08/30 06:28:09;;;;;;;;;4.25;4.25;;;;;18.32;62.48;100317.69;5069286;28;67144;-75
2023/08/30 06:30:34;;;;;;;;;5.00;3.50;;;;;18.33;62.34;100313.28;5067354;28;45402;-73
2023/08/30 06:33:00;;;;;;;;;4.25;4.00;;;;;18.35;62.28;100308.72;5075368;28;67164;-73
2023/08/30 06:35:25;;;;;;;;;4.00;4.00;;;;;18.38;62.42;100316.47;5062472;28;46015;-73
2023/08/30 06:37:52;;;;;;;;;5.00;5.00;;;;;18.41;62.45;100308.28;5071272;28;72465;-72
2023/08/30 06:40:17;;;;;;;;;7.00;4.50;;;;;18.46;62.43;100316.78;5073631;28;45318;-73
2023/08/30 06:42:57;;;;;;;;;5.75;4.25;;;;;18.49;62.13;100305.16;5069182;28;51904;-73
2023/08/30 06:45:22;;;;;;;;;3.75;3.75;;;;;18.53;61.91;100311.94;5067081;28;46125;-72
2023/08/30 06:47:48;;;;;;;;;4.75;3.50;;;;;18.55;61.94;100310.88;5049537;28;46428;-73
2023/08/30 06:50:14;;;;;;;;;3.00;1.75;;;;;18.55;61.87;100310.88;5069030;28;45511;-75
2023/08/30 06:52:42;;;;;;;;;5.00;3.25;;;;;18.58;61.79;100304.53;5071896;28;73134;-75
2023/08/30 06:55:07;;;;;;;;;7.50;4.00;;;;;18.57;62.13;100316.94;5068926;28;46543;-73
2023/08/30 06:57:33;;;;;;;;;5.25;4.25;;;;;18.63;61.68;100317.44;5075666;27;45516;-74
2023/08/30 07:00:08;;;;;;;;;3.00;3.00;;;;;18.60;61.65;100314.06;5066997;28;45557;-73
2023/08/30 07:02:36;;;;;;;;;2.25;2.25;;;;;18.66;62.08;100326.06;5072038;28;45446;-73
2023/08/30 07:05:02;;;;;;;;;2.00;0.00;;;;;18.62;62.15;100310.47;5069018;28;46227;-73
2023/08/30 07:07:28;;;;;;;;;5.50;2.00;;;;;18.67;61.93;100329.56;5068391;27;45387;-72
2023/08/30 07:09:53;;;;;;;;;3.75;2.75;;;;;18.66;62.17;100319.91;5068232;27;45379;-73
2023/08/30 07:12:18;;;;;;;;;3.75;2.00;;;;;18.70;61.93;100326.72;5061067;28;45283;-72
2023/08/30 07:14:44;;;;;;;;;5.00;1.75;;;;;18.69;61.25;100328.50;5053237;27;71680;-71
2023/08/30 07:17:09;;;;;;;;;3.00;2.00;;;;;18.72;61.24;100325.66;5081484;27;45362;-71
2023/08/30 07:19:35;;;;;;;;;1.25;1.00;;;;;18.70;61.21;100324.06;5080995;27;45542;-72
2023/08/30 07:22:00;;;;;;;;;3.00;2.00;;;;;18.70;61.21;100316.13;5065823;27;61741;-70
2023/08/30 07:24:25;;;;;;;;;1.50;1.50;;;;;18.68;61.31;100320.63;5073119;27;46216;-70
2023/08/30 07:26:51;;;;;;;;;4.25;2.75;;;;;18.70;61.03;100321.41;5066403;28;69777;-72
2023/08/30 07:29:16;;;;;;;;;2.00;2.00;;;;;18.71;61.21;100315.97;5071876;28;45335;-72
2023/08/30 07:31:41;;;;;;;;;5.00;2.00;;;;;18.77;60.95;100323.53;5044034;28;65763;-71
2023/08/30 07:34:07;;;;;;;;;2.00;2.00;;;;;18.82;60.84;100320.59;5065281;28;74996;-71
2023/08/30 07:36:33;;;;;;;;;3.00;3.00;;;;;18.86;60.89;100322.09;5066625;28;45305;-72
2023/08/30 07:38:58;;;;;;;;;2.00;2.00;;;;;18.91;60.66;100319.09;5074893;27;46389;-74
2023/08/30 07:41:24;;;;;;;;;3.25;2.00;;;;;18.93;60.36;100322.53;5082523;27;69760;-74
2023/08/30 07:43:49;;;;;;;;;3.50;0.50;;;;;18.99;60.27;100322.09;5078873;27;73114;-74
2023/08/30 07:46:14;;;;;;;;;2.75;2.00;;;;;19.06;60.44;100323.38;5073758;28;54505;-73
2023/08/30 07:48:40;;;;;;;;;2.00;1.00;;;;;19.09;60.31;100320.50;5082260;27;45440;-73
2023/08/30 07:51:05;;;;;;;;;3.75;2.25;;;;;19.18;59.96;100324.31;5076146;27;57421;-74
2023/08/30 07:53:30;;;;;;;;;1.00;1.00;;;;;19.30;60.11;100333.22;5065790;28;69850;-69
2023/08/30 07:55:56;;;;;;;;;4.00;2.50;;;;;19.40;59.64;100323.66;5073565;27;59368;-70
2023/08/30 07:58:21;;;;;;;;;1.75;1.75;;;;;19.52;59.36;100324.59;5073766;27;62673;-70
2023/08/30 08:00:51;;;;;;;;;2.00;2.00;;;;;19.63;58.70;100322.00;5074191;28;55369;-71
2023/08/30 08:03:16;;;;;;;;;2.50;1.00;;;;;19.69;58.57;100331.38;5074480;27;46160;-71
2023/08/30 08:05:41;;;;;;;;;2.25;2.25;;;;;19.71;58.71;100322.31;5087777;27;46231;-71
2023/08/30 08:08:07;;;;;;;;;2.50;2.50;;;;;19.80;58.45;100314.69;5075814;27;49199;-70
2023/08/30 08:10:33;;;;;;;;;2.25;1.75;;;;;19.86;57.84;100316.91;5073611;28;45403;-70
2023/08/30 08:12:59;;;;;;;;;2.00;2.00;;;;;19.87;58.15;100315.94;5073771;27;48040;-71
2023/08/30 08:15:24;;;;;;;;;5.50;3.00;;;;;19.90;57.88;100324.53;5077607;27;45434;-71
2023/08/30 08:17:49;;;;;;;;;3.75;3.75;;;;;19.94;57.65;100311.88;5065592;27;45512;-71
2023/08/30 08:20:15;;;;;;;;;3.25;2.50;;;;;20.00;57.63;100316.72;5078853;27;45783;-70
2023/08/30 08:22:40;;;;;;;;;5.00;4.25;;;;;20.02;57.24;100309.50;5073710;27;46090;-72
2023/08/30 08:25:09;;;;;;;;;22.00;17.00;;;;;20.12;56.97;100317.66;5072029;28;45435;-69
2023/08/30 08:27:35;;;;;;;;;8.00;5.25;;;;;20.12;57.22;100316.81;5073771;28;45612;-76
2023/08/30 08:30:00;;;;;;;;;2.25;2.00;;;;;20.16;56.12;100326.25;5077484;27;45423;-72
2023/08/30 08:32:26;;;;;;;;;2.00;2.00;;;;;20.15;55.91;100325.41;5090972;27;47892;-70
2023/08/30 08:34:51;;;;;;;;;4.00;2.75;;;;;20.18;54.96;100321.66;5077748;27;69027;-71
2023/08/30 08:37:17;;;;;;;;;2.00;2.00;;;;;20.24;55.57;100329.19;5058027;28;45438;-71
2023/08/30 08:39:42;;;;;;;;;4.00;2.00;;;;;20.26;54.80;100321.94;5077904;27;45569;-71
2023/08/30 08:42:08;;;;;;;;;4.00;3.00;;;;;20.27;55.42;100327.16;5079567;27;47185;-73
2023/08/30 08:44:34;;;;;;;;;2.50;2.50;;;;;20.32;55.46;100326.78;5068116;27;46262;-73
2023/08/30 08:47:01;;;;;;;;;4.75;2.75;;;;;20.35;55.27;100328.38;5053145;28;45426;-71
2023/08/30 08:49:29;;;;;;;;;3.75;3.25;;;;;20.39;54.81;100325.38;5073873;27;45469;-73
2023/08/30 08:51:55;;;;;;;;;6.00;3.00;;;;;20.42;54.66;100329.63;5078041;28;47592;-73
2023/08/30 08:54:20;;;;;;;;;6.00;2.25;;;;;20.45;54.44;100329.38;5075355;28;45502;-72
2023/08/30 08:56:46;;;;;;;;;3.75;2.00;;;;;20.47;54.54;100338.09;5079389;27;45577;-73
2023/08/30 08:59:12;;;;;;;;;3.75;3.00;;;;;20.53;54.35;100339.44;5071726;27;65737;-72
2023/08/30 09:01:39;;;;;;;;;3.25;3.25;;;;;20.64;53.93;100334.19;5084271;27;45994;-70
2023/08/30 09:04:10;;;;;;;;;6.75;4.25;;;;;20.67;52.86;100337.47;5054983;28;45791;-71
2023/08/30 09:06:36;;;;;;;;;3.00;2.00;;;;;20.67;52.86;100336.63;5077450;27;45352;-71
2023/08/30 09:09:03;;;;;;;;;4.00;3.00;;;;;20.64;52.26;100336.84;5071901;27;45471;-72
2023/08/30 09:11:29;;;;;;;;;1.00;1.00;;;;;20.66;51.54;100338.44;5072215;27;45517;-75
2023/08/30 09:13:54;;;;;;;;;5.50;1.75;;;;;20.71;51.21;100339.91;5070819;28;45728;-78
2023/08/30 09:16:20;;;;;;;;;109.50;90.50;;;;;20.76;51.07;100343.91;5074682;28;45209;-76
2023/08/30 09:19:03;;;;;;;;;11.25;9.00;;;;;20.83;51.58;100344.28;5078051;28;45321;-76
2023/08/30 09:21:29;;;;;;;;;2.25;2.00;;;;;20.88;51.23;100342.13;5060918;28;47642;-77
2023/08/30 09:24:05;;;;;;;;;1.00;1.00;;;;;20.88;50.93;100338.63;5066800;28;45304;-74
2023/08/30 09:26:32;;;;;;;;;3.75;2.00;;;;;20.83;50.36;100334.47;5071450;28;45429;-71
2023/08/30 09:29:04;;;;;;;;;2.75;1.75;;;;;20.85;51.01;100324.56;5071110;27;45411;-72
2023/08/30 09:31:38;;;;;;;;;2.50;2.00;;;;;20.93;50.49;100334.63;5071458;28;48604;-74
2023/08/30 09:34:07;;;;;;;;;4.25;2.00;;;;;20.87;49.26;100324.44;5066473;28;45312;-74
2023/08/30 09:36:36;;;;;;;;;1.75;1.75;;;;;20.93;49.78;100329.31;5059528;28;45393;-71
2023/08/30 09:39:09;;;;;;;;;8.00;3.00;;;;;20.96;48.76;100323.75;5070731;27;45530;-72
2023/08/30 09:41:35;;;;;;;;;5.00;1.50;;;;;20.92;48.64;100329.44;5071917;28;46200;-72
2023/08/30 09:44:22;;;;;;;;;2.25;0.75;;;;;20.98;49.13;100321.84;5047317;28;46035;-72
2023/08/30 09:46:55;;;;;;;;;4.00;3.00;;;;;21.12;49.96;100320.72;5090857;27;45514;-73
2023/08/30 09:49:22;;;;;;;;;13.75;9.75;;;;;21.21;48.33;100327.16;5054759;28;45769;-72
2023/08/30 09:51:49;;;;;;;;;18.00;15.75;;;;;21.31;48.26;100327.28;5071942;27;45533;-75
2023/08/30 09:54:17;;;;;;;;;4.00;2.00;;;;;21.41;46.99;100321.13;5065300;28;45862;-77
2023/08/30 09:56:44;;;;;;;;;3.25;2.00;;;;;21.54;47.48;100330.81;5066129;28;45416;-73
2023/08/30 09:59:11;;;;;;;;;3.50;2.25;;;;;21.63;47.82;100327.44;5059557;28;45635;-75
2023/08/30 10:01:37;;;;;;;;;4.00;2.00;;;;;21.60;47.10;100312.56;5066079;28;47307;-71
2023/08/30 10:04:03;;;;;;;;;1.00;1.00;;;;;21.60;46.26;100327.66;5070722;28;45331;-74
2023/08/30 10:06:29;;;;;;;;;3.25;2.00;;;;;21.46;45.57;100323.47;5045781;28;45282;-72
2023/08/30 10:08:56;;;;;;;;;2.50;1.00;;;;;21.32;46.83;100326.31;5074976;27;45186;-72
2023/08/30 10:11:22;;;;;;;;;3.25;2.00;;;;;21.17;46.25;100323.03;5072221;28;46289;-74
2023/08/30 10:13:48;;;;;;;;;2.25;2.00;;;;;21.02;47.07;100311.81;5064020;28;45291;-74
2023/08/30 10:16:22;;;;;;;;;6.50;2.00;;;;;20.89;46.41;100322.53;5075615;28;45492;-74
2023/08/30 10:18:52;;;;;;;;;3.75;2.00;;;;;20.84;46.64;100320.22;5074347;27;45748;-84
2023/08/30 10:21:18;;;;;;;;;2.50;1.25;;;;;20.83;45.86;100325.66;5072098;27;45503;-72
2023/08/30 10:23:46;;;;;;;;;3.00;1.25;;;;;20.76;45.42;100325.28;5068324;27;45714;-73
2023/08/30 10:26:11;;;;;;;;;4.75;2.00;;;;;20.73;45.55;100328.16;5067707;28;45409;-72
2023/08/30 10:28:38;;;;;;;;;3.00;3.00;;;;;20.75;45.59;100323.59;5073799;27;62768;-72
2023/08/30 10:31:04;;;;;;;;;1.25;1.00;;;;;20.72;45.70;100325.66;5067372;28;45973;-72
2023/08/30 10:33:29;;;;;;;;;3.75;1.75;;;;;20.66;44.36;100333.13;5058969;28;59003;-73
2023/08/30 10:36:04;;;;;;;;;4.50;2.25;;;;;20.63;44.71;100330.69;5071809;28;66231;-72
2023/08/30 10:38:32;;;;;;;;;6.00;3.00;;;;;20.70;45.10;100325.75;5070411;27;45482;-72
2023/08/30 10:41:09;;;;;;;;;4.75;3.25;;;;;20.72;45.61;100329.16;5054946;28;47442;-73
2023/08/30 10:43:36;;;;;;;;;4.75;4.00;;;;;20.69;44.11;100325.88;5066960;28;45362;-72
2023/08/30 10:46:02;;;;;;;;;3.25;3.25;;;;;20.69;44.82;100332.03;5073985;28;45407;-71
2023/08/30 10:48:38;;;;;;;;;5.00;3.00;;;;;20.70;44.89;100327.56;5077314;28;45535;-73
2023/08/30 10:51:07;;;;;;;;;3.00;2.00;;;;;20.74;44.10;100329.88;5054802;28;47460;-73
2023/08/30 10:53:33;;;;;;;;;1.25;1.25;;;;;20.75;44.10;100325.41;5073502;28;45350;-72
2023/08/30 10:56:11;;;;;;;;;1.50;1.25;;;;;20.79;44.82;100325.06;5074942;28;45334;-71
2023/08/30 10:58:46;;;;;;;;;6.00;4.00;;;;;20.86;44.57;100328.09;5057426;28;45702;-72
2023/08/30 11:01:15;;;;;;;;;3.00;2.25;;;;;21.05;43.15;100327.50;5076575;28;46318;-73
2023/08/30 11:03:42;;;;;;;;;2.75;2.25;;;;;21.29;44.64;100323.91;5061107;28;45469;-72
2023/08/30 11:06:07;;;;;;;;;3.00;2.25;;;;;21.37;44.51;100329.47;5070633;28;45434;-72
2023/08/30 11:08:33;;;;;;;;;5.00;4.00;;;;;21.37;44.64;100335.66;5053825;28;46235;-75
2023/08/30 11:11:04;;;;;;;;;6.00;2.75;;;;;21.47;43.40;100316.31;5072845;28;46273;-76
2023/08/30 11:13:29;;;;;;;;;3.50;1.75;;;;;21.64;43.79;100329.13;5070051;28;45729;-79
2023/08/30 11:15:59;;;;;;;;;5.00;2.00;;;;;21.61;41.33;100319.56;5070335;28;66060;-81
2023/08/30 11:18:26;;;;;;;;;5.25;3.50;;;;;21.73;42.90;100324.88;5077971;28;45567;-81
2023/08/30 11:21:01;;;;;;;;;27.50;21.50;;;;;21.88;43.08;100328.13;5067266;28;46011;-80
2023/08/30 11:23:27;;;;;;;;;3.50;3.00;;;;;21.97;42.51;100322.03;5066255;28;45496;-80